createdAt,value
2019-05-11T00:01:05.048Z,98505.84
2019-05-11T00:03:35.030Z,98499.37
2019-05-11T00:06:04.247Z,98493.94
2019-05-11T00:08:33.976Z,98497.69
2019-05-11T00:11:06.923Z,98504.94
2019-05-11T00:13:36.457Z,98496.27
2019-05-11T00:16:09.124Z,98487.46
2019-05-11T00:18:39.359Z,98475.88
2019-05-11T00:21:09.316Z,98485.55
2019-05-11T00:23:38.516Z,98490.86
2019-05-11T00:26:07.694Z,98491.34
2019-05-11T00:28:37.675Z,98502.19
2019-05-11T00:31:07.100Z,98495.67
2019-05-11T00:33:36.567Z,98488.83
2019-05-11T00:36:06.687Z,98499.17
2019-05-11T00:38:36.144Z,98496.44
2019-05-11T00:41:05.300Z,98493.30
2019-05-11T00:43:36.053Z,98489.68
2019-05-11T00:46:05.203Z,98484.59
2019-05-11T00:48:34.711Z,98475.30
2019-05-11T00:51:04.683Z,98487.48
2019-05-11T00:53:34.175Z,98500.64
2019-05-11T00:56:04.005Z,98510.39
2019-05-11T00:58:33.470Z,98521.73
2019-05-11T01:01:07.316Z,98521.13
2019-05-11T01:03:37.352Z,98524.02
2019-05-11T01:06:06.868Z,98512.33
2019-05-11T01:08:38.602Z,98523.77
2019-05-11T01:11:08.834Z,98528.97
2019-05-11T01:13:38.322Z,98529.91
2019-05-11T01:16:07.776Z,98520.14
2019-05-11T01:18:37.745Z,98508.47
2019-05-11T01:21:06.935Z,98508.09
2019-05-11T01:23:40.691Z,98507.86
2019-05-11T01:26:10.502Z,98507.00
2019-05-11T01:28:41.751Z,98501.70
2019-05-11T01:31:11.550Z,98496.54
2019-05-11T01:33:40.973Z,98484.59
2019-05-11T01:36:10.500Z,98481.81
2019-05-11T01:38:40.018Z,98486.73
2019-05-11T01:41:09.572Z,98495.78
2019-05-11T01:43:40.704Z,98506.14
2019-05-11T01:46:10.159Z,98506.14
2019-05-11T01:48:39.914Z,98508.78
2019-05-11T01:51:09.415Z,98506.48
2019-05-11T01:53:41.536Z,98513.97
2019-05-11T01:56:12.152Z,98501.44
2019-05-11T01:58:41.891Z,98498.87
2019-05-11T02:01:11.126Z,98491.90
2019-05-11T02:03:42.343Z,98492.26
2019-05-11T02:06:12.250Z,98486.10
2019-05-11T02:08:42.582Z,98490.33
2019-05-11T02:11:15.815Z,98492.11
2019-05-11T02:13:45.281Z,98484.42
2019-05-11T02:16:15.472Z,98479.38
2019-05-11T02:18:44.975Z,98477.43
2019-05-11T02:21:19.837Z,98471.53
2019-05-11T02:23:52.563Z,98475.36
2019-05-11T02:26:22.304Z,98477.50
2019-05-11T02:28:51.860Z,98473.02
2019-05-11T02:31:26.674Z,98470.37
2019-05-11T02:33:56.171Z,98461.19
2019-05-11T02:36:27.374Z,98468.49
2019-05-11T02:38:57.116Z,98474.47
2019-05-11T02:41:36.042Z,98476.91
2019-05-11T02:43:59.745Z,98480.12
2019-05-11T02:46:29.494Z,98475.23
2019-05-11T02:48:59.759Z,98482.81
2019-05-11T02:51:30.858Z,98480.69
2019-05-11T02:54:03.758Z,98477.92
2019-05-11T02:56:36.069Z,98476.14
2019-05-11T02:59:05.248Z,98471.42
2019-05-11T03:01:37.468Z,98467.56
2019-05-11T03:04:09.382Z,98468.05
2019-05-11T03:06:40.595Z,98470.94
2019-05-11T03:09:10.035Z,98474.70
2019-05-11T03:11:55.158Z,98463.50
2019-05-11T03:14:10.611Z,98457.25
2019-05-11T03:16:40.359Z,98447.89
2019-05-11T03:19:10.234Z,98439.04
2019-05-11T03:21:40.799Z,98428.72
2019-05-11T03:24:10.281Z,98437.48
2019-05-11T03:26:40.922Z,98444.55
2019-05-11T03:29:10.369Z,98442.74
2019-05-11T03:31:39.933Z,98451.44
2019-05-11T03:34:11.809Z,98450.48
2019-05-11T03:36:41.683Z,98461.11
2019-05-11T03:39:10.833Z,98462.56
2019-05-11T03:41:40.282Z,98461.63
2019-05-11T03:44:09.785Z,98457.91
2019-05-11T03:46:40.338Z,98468.34
2019-05-11T03:49:09.869Z,98465.61
2019-05-11T03:51:39.897Z,98467.53
2019-05-11T03:54:09.890Z,98467.53
2019-05-11T03:56:39.053Z,98458.93
2019-05-11T03:59:08.522Z,98445.30
2019-05-11T04:01:37.945Z,98441.66
2019-05-11T04:04:07.722Z,98443.03
2019-05-11T04:06:36.879Z,98443.91
2019-05-11T04:09:09.439Z,98443.07
2019-05-11T04:11:38.616Z,98447.59
2019-05-11T04:14:08.505Z,98446.08
2019-05-11T04:16:38.208Z,98432.92
2019-05-11T04:19:08.076Z,98435.45
2019-05-11T04:21:41.978Z,98437.66
2019-05-11T04:24:15.038Z,98434.97
2019-05-11T04:26:44.781Z,98428.72
2019-05-11T04:29:14.800Z,98420.78
2019-05-11T04:31:44.115Z,98420.53
2019-05-11T04:34:13.634Z,98418.86
2019-05-11T04:36:43.403Z,98411.11
2019-05-11T04:39:15.199Z,98413.88
2019-05-11T04:41:45.110Z,98410.58
2019-05-11T04:44:22.431Z,98419.36
2019-05-11T04:46:51.615Z,98422.80
2019-05-11T04:49:22.640Z,98420.92
2019-05-11T04:51:52.500Z,98409.27
2019-05-11T04:54:22.053Z,98402.47
2019-05-11T04:56:51.206Z,98403.08
2019-05-11T04:59:20.404Z,98401.99
2019-05-11T05:01:50.138Z,98407.95
2019-05-11T05:04:19.616Z,98408.79
2019-05-11T05:06:59.498Z,98409.45
2019-05-11T05:09:21.293Z,98405.50
2019-05-11T05:11:51.310Z,98399.67
2019-05-11T05:14:20.500Z,98386.98
2019-05-11T05:16:49.658Z,98388.44
2019-05-11T05:19:18.837Z,98378.04
2019-05-11T05:21:48.365Z,98371.05
2019-05-11T05:24:17.885Z,98377.19
2019-05-11T05:26:47.070Z,98385.11
2019-05-11T05:29:16.538Z,98380.50
2019-05-11T05:31:46.342Z,98383.81
2019-05-11T05:34:15.590Z,98374.08
2019-05-11T05:36:45.206Z,98374.19
2019-05-11T05:39:14.808Z,98373.15
2019-05-11T05:41:56.524Z,98369.07
2019-05-11T05:44:16.672Z,98364.83
2019-05-11T05:46:46.205Z,98365.84
2019-05-11T05:49:15.382Z,98352.02
2019-05-11T05:51:44.561Z,98348.34
2019-05-11T05:54:14.806Z,98348.30
2019-05-11T05:56:44.074Z,98349.06
2019-05-11T05:59:13.463Z,98350.38
2019-05-11T06:01:42.680Z,98355.44
2019-05-11T06:04:11.861Z,98362.56
2019-05-11T06:06:41.628Z,98357.63
2019-05-11T06:09:11.074Z,98355.19
2019-05-11T06:11:40.258Z,98356.19
2019-05-11T06:14:10.055Z,98349.10
2019-05-11T06:16:41.117Z,98348.95
2019-05-11T06:19:11.788Z,98343.09
2019-05-11T06:21:44.298Z,98350.98
2019-05-11T06:24:14.126Z,98351.38
2019-05-11T06:26:43.693Z,98349.30
2019-05-11T06:29:13.088Z,98361.20
2019-05-11T06:31:44.462Z,98362.80
2019-05-11T06:34:15.131Z,98365.56
2019-05-11T06:36:44.314Z,98369.05
2019-05-11T06:39:13.843Z,98359.88
2019-05-11T06:41:43.036Z,98355.79
2019-05-11T06:44:12.944Z,98354.11
2019-05-11T06:46:42.813Z,98329.59
2019-05-11T06:49:11.968Z,98319.97
2019-05-11T06:51:41.460Z,98325.14
2019-05-11T06:54:12.025Z,98336.31
2019-05-11T06:56:41.507Z,98340.17
2019-05-11T06:59:12.308Z,98344.48
2019-05-11T07:01:41.479Z,98346.41
2019-05-11T07:04:10.647Z,98349.77
2019-05-11T07:06:39.853Z,98351.94
2019-05-11T07:09:09.184Z,98364.44
2019-05-11T07:11:38.345Z,98374.30
2019-05-11T07:14:20.152Z,98374.25
2019-05-11T07:16:38.417Z,98372.05
2019-05-11T07:19:07.605Z,98367.86
2019-05-11T07:21:36.751Z,98374.66
2019-05-11T07:24:06.221Z,98366.89
2019-05-11T07:26:36.152Z,98361.97
2019-05-11T07:29:05.583Z,98353.79
2019-05-11T07:31:35.402Z,98354.75
2019-05-11T07:34:04.949Z,98360.17
2019-05-11T07:36:34.112Z,98368.81
2019-05-11T07:39:08.312Z,98373.03
2019-05-11T07:41:38.820Z,98380.37
2019-05-11T07:44:10.324Z,98372.19
2019-05-11T07:46:39.569Z,98379.84
2019-05-11T07:49:09.016Z,98378.72
2019-05-11T07:51:39.206Z,98371.58
2019-05-11T07:54:08.694Z,98366.78
2019-05-11T07:56:38.976Z,98368.09
2019-05-11T07:59:08.483Z,98373.39
2019-05-11T08:01:38.601Z,98385.33
2019-05-11T08:04:08.062Z,98383.00
2019-05-11T08:06:39.091Z,98388.36
2019-05-11T08:09:15.806Z,98388.88
2019-05-11T08:11:47.804Z,98390.81
2019-05-11T08:14:20.473Z,98388.05
2019-05-11T08:16:50.993Z,98397.31
2019-05-11T08:19:23.941Z,98392.38
2019-05-11T08:21:58.383Z,98389.91
2019-05-11T08:24:29.450Z,98390.39
2019-05-11T08:26:58.618Z,98393.67
2019-05-11T08:29:28.142Z,98395.60
2019-05-11T08:31:58.108Z,98390.55
2019-05-11T08:34:29.412Z,98391.23
2019-05-11T08:36:59.355Z,98395.84
2019-05-11T08:39:29.206Z,98404.02
2019-05-11T08:42:03.110Z,98405.81
2019-05-11T08:44:32.680Z,98397.64
2019-05-11T08:47:03.929Z,98401.94
2019-05-11T08:49:33.249Z,98405.27
2019-05-11T08:52:03.253Z,98403.98
2019-05-11T08:54:33.037Z,98411.62
2019-05-11T08:57:02.237Z,98409.62
2019-05-11T08:59:37.934Z,98415.52
2019-05-11T09:02:08.153Z,98414.13
2019-05-11T09:04:42.001Z,98421.50
2019-05-11T09:07:14.423Z,98413.36
2019-05-11T09:09:48.367Z,98425.39
2019-05-11T09:12:20.801Z,98416.37
2019-05-11T09:14:50.310Z,98421.30
2019-05-11T09:17:21.961Z,98424.88
2019-05-11T09:19:55.161Z,98425.46
2019-05-11T09:22:24.394Z,98429.96
2019-05-11T09:24:55.494Z,98437.27
2019-05-11T09:27:26.021Z,98433.28
2019-05-11T09:29:58.155Z,98435.45
2019-05-11T09:32:28.594Z,98445.48
2019-05-11T09:34:58.176Z,98444.83
2019-05-11T09:37:27.910Z,98446.52
2019-05-11T09:39:58.463Z,98453.62
2019-05-11T09:42:28.576Z,98457.47
2019-05-11T09:44:57.951Z,98462.88
2019-05-11T09:47:27.951Z,98466.38
2019-05-11T09:49:58.339Z,98473.83
2019-05-11T09:52:32.589Z,98473.75
2019-05-11T09:55:02.992Z,98476.39
2019-05-11T09:57:32.707Z,98484.09
2019-05-11T10:00:01.722Z,98485.74
2019-05-11T10:02:31.941Z,98493.43
2019-05-11T10:05:01.120Z,98499.65
2019-05-11T10:07:32.484Z,98504.50
2019-05-11T10:10:09.122Z,98512.69
2019-05-11T10:12:38.219Z,98511.08
2019-05-11T10:15:08.663Z,98516.44
2019-05-11T10:17:38.375Z,98519.98
2019-05-11T10:20:09.333Z,98526.75
2019-05-11T10:22:38.996Z,98530.56
2019-05-11T10:25:09.147Z,98539.74
2019-05-11T10:27:38.594Z,98540.14
2019-05-11T10:30:09.016Z,98540.12
2019-05-11T10:32:38.360Z,98545.02
2019-05-11T10:35:08.189Z,98550.20
2019-05-11T10:37:38.884Z,98556.63
2019-05-11T10:40:09.537Z,98560.30
2019-05-11T10:42:38.939Z,98564.06
2019-05-11T10:45:09.288Z,98564.44
2019-05-11T10:47:38.533Z,98566.08
2019-05-11T10:50:08.761Z,98568.54
2019-05-11T10:52:40.920Z,98571.17
2019-05-11T10:55:10.811Z,98569.37
2019-05-11T10:57:40.015Z,98567.33
2019-05-11T11:00:11.857Z,98580.45
2019-05-11T11:02:41.855Z,98581.86
2019-05-11T11:05:13.444Z,98587.24
2019-05-11T11:07:42.645Z,98587.30
2019-05-11T11:10:13.319Z,98592.45
2019-05-11T11:12:48.881Z,98595.20
2019-05-11T11:15:29.808Z,98601.97
2019-05-11T11:18:00.971Z,98604.27
2019-05-11T11:20:32.242Z,98614.97
2019-05-11T11:23:03.282Z,98612.19
2019-05-11T11:25:38.217Z,98615.92
2019-05-11T11:28:09.635Z,98620.48
2019-05-11T11:30:40.810Z,98621.08
2019-05-11T11:33:31.157Z,98631.41
2019-05-11T11:36:00.655Z,98632.64
2019-05-11T11:38:30.003Z,98636.59
2019-05-11T11:40:59.186Z,98639.74
2019-05-11T11:43:30.761Z,98642.14
2019-05-11T11:46:03.108Z,98651.15
2019-05-11T11:48:32.879Z,98649.42
2019-05-11T11:51:02.230Z,98651.28
2019-05-11T11:53:31.547Z,98659.61
2019-05-11T11:56:00.865Z,98656.96
2019-05-11T11:58:32.244Z,98662.54
2019-05-11T12:01:02.466Z,98666.89
2019-05-11T12:03:35.229Z,98663.52
2019-05-11T12:06:04.495Z,98665.82
2019-05-11T12:08:35.124Z,98675.20
2019-05-11T12:11:04.290Z,98684.00
2019-05-11T12:13:38.193Z,98690.59
2019-05-11T12:16:07.752Z,98686.98
2019-05-11T12:18:38.183Z,98693.68
2019-05-11T12:21:08.216Z,98699.16
2019-05-11T12:23:38.098Z,98706.98
2019-05-11T12:26:08.486Z,98708.11
2019-05-11T12:28:38.313Z,98706.87
2019-05-11T12:31:08.710Z,98719.39
2019-05-11T12:33:38.564Z,98724.80
2019-05-11T12:36:08.146Z,98730.53
2019-05-11T12:38:38.190Z,98727.69
2019-05-11T12:41:08.732Z,98727.20
2019-05-11T12:43:38.304Z,98739.72
2019-05-11T12:46:08.194Z,98739.89
2019-05-11T12:48:38.023Z,98745.38
2019-05-11T12:51:08.029Z,98760.71
2019-05-11T12:53:38.477Z,98751.23
2019-05-11T12:56:08.553Z,98762.25
2019-05-11T12:58:39.607Z,98761.18
2019-05-11T13:01:09.572Z,98768.68
2019-05-11T13:03:41.478Z,98772.48
2019-05-11T13:06:14.743Z,98775.73
2019-05-11T13:08:47.620Z,98776.29
2019-05-11T13:11:19.135Z,98769.89
2019-05-11T13:13:48.661Z,98778.99
2019-05-11T13:16:21.181Z,98787.92
2019-05-11T13:18:50.655Z,98778.70
2019-05-11T13:21:19.873Z,98783.70
2019-05-11T13:23:50.490Z,98787.05
2019-05-11T13:26:20.248Z,98794.05
2019-05-11T13:28:51.632Z,98798.38
2019-05-11T13:31:20.799Z,98793.81
2019-05-11T13:33:49.986Z,98803.68
2019-05-11T13:36:19.153Z,98808.16
2019-05-11T13:38:48.607Z,98819.01
2019-05-11T13:41:18.731Z,98826.34
2019-05-11T13:43:48.688Z,98822.70
2019-05-11T13:46:18.766Z,98826.73
2019-05-11T13:48:47.998Z,98842.75
2019-05-11T13:51:18.200Z,98843.98
2019-05-11T13:53:48.258Z,98852.64
2019-05-11T13:56:18.365Z,98861.23
2019-05-11T13:58:48.977Z,98868.47
2019-05-11T14:01:18.782Z,98875.43
2019-05-11T14:03:48.569Z,98882.91
2019-05-11T14:06:18.670Z,98876.47
2019-05-11T14:08:48.560Z,98884.38
2019-05-11T14:11:18.378Z,98891.62
2019-05-11T14:13:50.446Z,98893.53
2019-05-11T14:16:20.441Z,98902.18
2019-05-11T14:18:49.965Z,98901.81
2019-05-11T14:21:20.397Z,98910.23
2019-05-11T14:23:49.827Z,98916.21
2019-05-11T14:26:19.549Z,98910.87
2019-05-11T14:28:48.750Z,98916.97
2019-05-11T14:31:18.832Z,98921.16
2019-05-11T14:33:48.921Z,98919.39
2019-05-11T14:36:18.709Z,98920.99
2019-05-11T14:38:48.686Z,98926.69
2019-05-11T14:41:18.498Z,98932.55
2019-05-11T14:43:49.664Z,98940.31
2019-05-11T14:46:19.575Z,98939.75
2019-05-11T14:48:48.792Z,98946.64
2019-05-11T14:51:18.318Z,98947.38
2019-05-11T14:53:48.287Z,98945.61
2019-05-11T14:56:19.234Z,98960.16
2019-05-11T14:58:49.235Z,98973.80
2019-05-11T15:01:19.318Z,98973.80
2019-05-11T15:03:50.029Z,98983.91
2019-05-11T15:06:21.681Z,98986.83
2019-05-11T15:08:51.404Z,98984.77
2019-05-11T15:11:20.610Z,98994.58
2019-05-11T15:13:49.804Z,98999.11
2019-05-11T15:16:19.764Z,99000.78
2019-05-11T15:18:48.941Z,99006.47
2019-05-11T15:21:19.061Z,99019.90
2019-05-11T15:23:48.289Z,99026.78
2019-05-11T15:26:18.674Z,99026.34
2019-05-11T15:28:48.717Z,99032.11
2019-05-11T15:31:22.202Z,99030.59
2019-05-11T15:33:49.100Z,99031.44
2019-05-11T15:36:19.258Z,99039.86
2019-05-11T15:38:48.904Z,99052.24
2019-05-11T15:41:18.646Z,99050.86
2019-05-11T15:43:48.841Z,99056.35
2019-05-11T15:46:21.071Z,99063.03
2019-05-11T15:49:00.393Z,99070.13
2019-05-11T15:51:24.228Z,99066.19
2019-05-11T15:53:53.932Z,99077.22
2019-05-11T15:56:28.009Z,99085.25
2019-05-11T15:58:58.916Z,99094.34
2019-05-11T16:01:29.048Z,99097.63
2019-05-11T16:03:58.477Z,99106.91
2019-05-11T16:06:28.625Z,99120.03
2019-05-11T16:08:58.615Z,99127.86
2019-05-11T16:11:28.956Z,99140.61
2019-05-11T16:13:58.735Z,99144.38
2019-05-11T16:16:28.208Z,99154.86
2019-05-11T16:19:10.585Z,99169.99
2019-05-11T16:21:30.006Z,99177.44
2019-05-11T16:23:59.198Z,99187.23
2019-05-11T16:26:28.583Z,99190.09
2019-05-11T16:28:58.225Z,99205.64
2019-05-11T16:31:28.467Z,99210.27
2019-05-11T16:33:58.880Z,99221.23
2019-05-11T16:36:29.840Z,99221.89
2019-05-11T16:38:59.029Z,99236.39
2019-05-11T16:41:30.779Z,99230.06
2019-05-11T16:44:02.610Z,99231.48
2019-05-11T16:46:32.372Z,99233.56
2019-05-11T16:49:04.335Z,99241.97
2019-05-11T16:51:33.850Z,99249.29
2019-05-11T16:54:03.310Z,99248.86
2019-05-11T16:56:33.217Z,99251.94
2019-05-11T16:59:03.267Z,99246.03
2019-05-11T17:01:33.112Z,99247.69
2019-05-11T17:04:02.564Z,99257.14
2019-05-11T17:06:34.146Z,99265.16
2019-05-11T17:09:08.807Z,99269.50
2019-05-11T17:11:38.631Z,99288.73
2019-05-11T17:14:08.420Z,99303.32
2019-05-11T17:16:38.923Z,99308.98
2019-05-11T17:19:09.285Z,99322.86
2019-05-11T17:21:38.485Z,99331.69
2019-05-11T17:24:07.708Z,99327.91
2019-05-11T17:26:38.589Z,99341.19
2019-05-11T17:29:10.110Z,99350.29
2019-05-11T17:31:38.800Z,99351.90
2019-05-11T17:34:08.993Z,99349.30
2019-05-11T17:36:39.281Z,99357.38
2019-05-11T17:39:09.012Z,99348.97
2019-05-11T17:41:38.879Z,99351.52
2019-05-11T17:44:08.427Z,99356.80
2019-05-11T17:46:38.428Z,99367.56
2019-05-11T17:49:08.069Z,99372.84
2019-05-11T17:51:38.068Z,99387.31
2019-05-11T17:54:11.305Z,99386.35
2019-05-11T17:56:40.229Z,99386.06
2019-05-11T17:59:09.690Z,99397.72
2019-05-11T18:01:38.872Z,99391.46
2019-05-11T18:04:08.974Z,99397.83
2019-05-11T18:06:38.561Z,99393.92
2019-05-11T18:09:08.788Z,99396.07
2019-05-11T18:11:40.107Z,99402.68
2019-05-11T18:14:09.282Z,99410.23
2019-05-11T18:16:38.718Z,99412.25
2019-05-11T18:19:08.805Z,99416.98
2019-05-11T18:21:38.839Z,99427.82
2019-05-11T18:24:09.309Z,99425.85
2019-05-11T18:26:38.516Z,99430.28
2019-05-11T18:29:10.999Z,99428.94
2019-05-11T18:31:42.553Z,99433.95
2019-05-11T18:34:12.399Z,99433.75
2019-05-11T18:36:42.399Z,99448.27
2019-05-11T18:39:11.858Z,99453.55
2019-05-11T18:41:41.291Z,99454.52
2019-05-11T18:44:10.457Z,99456.10
2019-05-11T18:46:39.665Z,99466.50
2019-05-11T18:49:08.842Z,99468.52
2019-05-11T18:51:39.012Z,99476.61
2019-05-11T18:54:18.947Z,99480.88
2019-05-11T18:56:49.112Z,99480.97
2019-05-11T18:59:21.447Z,99480.14
2019-05-11T19:01:55.072Z,99488.08
2019-05-11T19:04:25.558Z,99490.97
2019-05-11T19:06:54.939Z,99489.36
2019-05-11T19:09:24.602Z,99498.66
2019-05-11T19:11:54.279Z,99500.02
2019-05-11T19:14:23.478Z,99515.45
2019-05-11T19:16:52.669Z,99524.17
2019-05-11T19:19:21.832Z,99533.33
2019-05-11T19:21:51.409Z,99533.55
2019-05-11T19:24:21.623Z,99543.67
2019-05-11T19:26:51.548Z,99551.80
2019-05-11T19:29:20.899Z,99560.36
2019-05-11T19:31:50.101Z,99566.56
2019-05-11T19:34:20.612Z,99572.53
2019-05-11T19:36:53.948Z,99573.13
2019-05-11T19:39:28.038Z,99577.89
2019-05-11T19:41:58.361Z,99589.58
2019-05-11T19:44:28.045Z,99595.45
2019-05-11T19:46:58.141Z,99604.30
2019-05-11T19:49:27.939Z,99611.05
2019-05-11T19:52:00.341Z,99611.12
2019-05-11T19:54:29.563Z,99622.38
2019-05-11T19:57:00.122Z,99625.75
2019-05-11T19:59:29.341Z,99626.87
2019-05-11T20:01:59.996Z,99626.56
2019-05-11T20:04:29.398Z,99626.72
2019-05-11T20:07:00.184Z,99632.61
2019-05-11T20:09:30.643Z,99635.87
2019-05-11T20:12:00.983Z,99640.66
2019-05-11T20:14:30.390Z,99635.30
2019-05-11T20:16:59.786Z,99630.91
2019-05-11T20:19:29.250Z,99632.03
2019-05-11T20:21:59.481Z,99632.58
2019-05-11T20:24:28.697Z,99639.25
2019-05-11T20:26:57.866Z,99640.30
2019-05-11T20:29:27.784Z,99641.77
2019-05-11T20:31:57.814Z,99645.80
2019-05-11T20:34:28.791Z,99650.34
2019-05-11T20:36:58.755Z,99653.38
2019-05-11T20:39:28.741Z,99653.25
2019-05-11T20:41:58.384Z,99649.84
2019-05-11T20:44:28.781Z,99645.64
2019-05-11T20:46:58.343Z,99650.42
2019-05-11T20:49:28.384Z,99651.04
2019-05-11T20:51:58.151Z,99660.81
2019-05-11T20:54:28.185Z,99658.09
2019-05-11T20:56:58.509Z,99666.08
2019-05-11T20:59:28.996Z,99659.76
2019-05-11T21:01:59.808Z,99667.13
2019-05-11T21:04:29.303Z,99672.95
2019-05-11T21:06:59.413Z,99673.80
2019-05-11T21:09:29.129Z,99675.38
2019-05-11T21:11:59.001Z,99684.76
2019-05-11T21:14:32.925Z,99686.15
2019-05-11T21:17:02.722Z,99689.53
2019-05-11T21:19:32.227Z,99693.27
2019-05-11T21:22:04.514Z,99697.80
2019-05-11T21:24:35.079Z,99705.98
2019-05-11T21:27:04.264Z,99710.92
2019-05-11T21:29:33.735Z,99711.78
2019-05-11T21:32:04.201Z,99717.89
2019-05-11T21:34:33.411Z,99729.28
2019-05-11T21:37:07.857Z,99735.28
2019-05-11T21:39:38.014Z,99741.11
2019-05-11T21:42:07.821Z,99750.95
2019-05-11T21:44:37.846Z,99754.66
2019-05-11T21:47:08.820Z,99760.61
2019-05-11T21:49:40.377Z,99757.55
2019-05-11T21:52:11.997Z,99770.62
2019-05-11T21:54:42.559Z,99769.00
2019-05-11T21:57:12.560Z,99767.16
2019-05-11T21:59:44.017Z,99784.48
2019-05-11T22:02:14.827Z,99787.13
2019-05-11T22:04:44.967Z,99788.78
2019-05-11T22:07:15.258Z,99796.55
2019-05-11T22:09:45.130Z,99799.37
2019-05-11T22:12:14.560Z,99805.36
2019-05-11T22:14:43.772Z,99813.66
2019-05-11T22:17:13.259Z,99815.09
2019-05-11T22:19:42.771Z,99821.34
2019-05-11T22:22:24.258Z,99816.17
2019-05-11T22:24:44.255Z,99820.36
2019-05-11T22:27:13.769Z,99824.25
2019-05-11T22:29:43.466Z,99828.38
2019-05-11T22:32:12.944Z,99840.69
2019-05-11T22:34:42.918Z,99848.58
2019-05-11T22:37:12.932Z,99849.70
2019-05-11T22:39:42.682Z,99845.30
2019-05-11T22:42:12.455Z,99849.58
2019-05-11T22:44:43.060Z,99846.83
2019-05-11T22:47:13.272Z,99849.45
2019-05-11T22:49:42.431Z,99846.09
2019-05-11T22:52:13.039Z,99847.41
2019-05-11T22:54:43.269Z,99853.73
2019-05-11T22:57:13.032Z,99860.38
2019-05-11T22:59:43.269Z,99868.80
2019-05-11T23:02:15.662Z,99862.22
2019-05-11T23:04:48.598Z,99873.78
2019-05-11T23:07:18.786Z,99874.09
2019-05-11T23:09:49.043Z,99868.89
2019-05-11T23:12:21.756Z,99873.72
2019-05-11T23:15:08.894Z,99878.05
2019-05-11T23:17:39.365Z,99871.69
2019-05-11T23:20:10.734Z,99883.33
2019-05-11T23:22:58.007Z,99889.39
2019-05-11T23:25:20.735Z,99887.41
2019-05-11T23:27:51.475Z,99893.59
2019-05-11T23:30:20.920Z,99894.97
2019-05-11T23:32:50.877Z,99893.91
2019-05-11T23:35:21.342Z,99892.59
2019-05-11T23:37:52.214Z,99901.28
2019-05-11T23:40:22.181Z,99897.38
2019-05-11T23:42:51.383Z,99909.81
2019-05-11T23:45:24.976Z,99913.05
2019-05-11T23:47:55.090Z,99911.84
2019-05-11T23:50:24.573Z,99914.09
2019-05-11T23:53:05.955Z,99909.92
2019-05-11T23:55:29.072Z,99904.29
2019-05-11T23:58:01.010Z,99910.73
